Time;durP1;ratioP1;P1;durP2;ratioP2;P2;SDS_P1;SDS_P2;PMS_P1;PMS_P2;Temp;Humidity;BMP_temperature;BMP_pressure;BME280_temperature;BME280_humidity;BME280_pressure;Samples;Min_cycle;Max_cycle;Signal;HPM_P1;HPM_P2
2022/04/26 03:37:19;;;;;;;3.43;2.30;;;;;;;6.53;84.06;95318.56;1787847;80;21017;-67
2022/04/26 03:39:47;;;;;;;3.03;2.10;;;;;;;6.60;83.83;95327.72;1787614;80;21427;-67
2022/04/26 03:42:14;;;;;;;6.17;2.13;;;;;;;6.59;83.07;95343.00;1787673;80;20985;-67
2022/04/26 03:44:42;;;;;;;2.40;2.20;;;;;;;6.57;83.02;95341.27;1787740;80;21029;-67
2022/04/26 03:47:09;;;;;;;4.00;2.40;;;;;;;6.47;83.06;95344.39;1787741;80;21030;-66
2022/04/26 03:49:37;;;;;;;3.30;2.23;;;;;;;6.41;83.31;95341.83;1787418;80;20982;-67
2022/04/26 03:52:05;;;;;;;8.23;4.90;;;;;;;6.27;83.34;95337.96;1787696;80;20954;-67
2022/04/26 03:54:31;;;;;;;12.40;7.80;;;;;;;6.20;83.40;95341.49;1787708;80;20986;-67
2022/04/26 03:56:58;;;;;;;15.43;9.97;;;;;;;6.12;84.04;95344.60;1787932;80;20970;-67
2022/04/26 03:59:24;;;;;;;9.43;6.50;;;;;;;6.11;84.05;95342.43;1787699;80;21475;-67
2022/04/26 04:01:51;;;;;;;24.30;13.30;;;;;;;6.06;83.99;95339.83;1787967;80;20962;-67
2022/04/26 04:04:18;;;;;;;19.73;10.07;;;;;;;6.01;84.13;95340.73;1787368;80;20998;-67
2022/04/26 04:06:45;;;;;;;18.03;11.87;;;;;;;5.96;84.22;95341.20;1787658;80;21001;-67
2022/04/26 04:09:13;;;;;;;24.80;13.97;;;;;;;5.91;84.76;95335.08;1794114;80;21538;-67
2022/04/26 04:11:40;;;;;;;24.47;14.37;;;;;;;5.82;85.50;95338.19;1795861;80;21001;-67
2022/04/26 04:14:07;;;;;;;22.90;12.47;;;;;;;5.82;85.70;95340.80;1796525;79;21056;-67
2022/04/26 04:16:33;;;;;;;28.30;17.63;;;;;;;5.85;85.56;95335.98;1796410;80;20993;-67
2022/04/26 04:19:19;;;;;;;26.63;18.27;;;;;;;5.90;85.72;95334.22;1796141;79;21029;-67
2022/04/26 04:21:47;;;;;;;29.17;17.97;;;;;;;5.99;85.82;95335.50;1796278;80;20989;-67
2022/04/26 04:24:15;;;;;;;24.53;16.00;;;;;;;6.10;85.74;95334.56;1796235;80;21001;-67
2022/04/26 04:26:42;;;;;;;22.40;15.30;;;;;;;6.14;85.35;95329.30;1796255;79;21004;-67
2022/04/26 04:29:09;;;;;;;17.73;12.13;;;;;;;6.15;85.14;95327.14;1796533;79;20993;-67
2022/04/26 04:31:36;;;;;;;14.13;8.97;;;;;;;6.25;85.41;95330.13;1796546;80;20965;-67
2022/04/26 04:34:03;;;;;;;9.77;6.70;;;;;;;6.29;84.72;95327.91;1795677;80;20974;-67
2022/04/26 04:36:30;;;;;;;6.80;5.00;;;;;;;6.39;85.02;95330.03;1796386;79;21034;-67
2022/04/26 04:38:58;;;;;;;11.97;6.97;;;;;;;6.52;85.09;95332.12;1796316;80;21495;-67
2022/04/26 04:41:25;;;;;;;10.93;6.90;;;;;;;6.61;85.00;95334.69;1796292;80;21008;-67
2022/04/26 04:43:52;;;;;;;11.37;5.70;;;;;;;6.77;85.15;95339.36;1796059;80;21564;-67
2022/04/26 04:46:18;;;;;;;7.93;5.67;;;;;;;6.91;84.91;95339.27;1796187;79;21013;-67
2022/04/26 04:48:45;;;;;;;7.33;5.80;;;;;;;7.06;84.82;95336.95;1796202;80;20989;-67
2022/04/26 04:51:12;;;;;;;6.70;5.40;;;;;;;7.16;84.76;95343.85;1796157;79;21008;-67
2022/04/26 04:53:38;;;;;;;8.47;5.57;;;;;;;7.23;84.89;95349.89;1795828;80;21053;-66
2022/04/26 04:56:10;;;;;;;7.57;6.10;;;;;;;7.34;85.20;95346.73;1796371;80;21487;-67
2022/04/26 04:58:38;;;;;;;7.53;5.03;;;;;;;7.45;84.87;95343.99;1796355;80;21494;-67
2022/04/26 05:01:05;;;;;;;5.60;4.97;;;;;;;7.62;84.87;95343.37;1796124;80;20981;-67
2022/04/26 05:03:31;;;;;;;6.70;5.13;;;;;;;7.80;84.77;95344.46;1796114;80;21017;-67
2022/04/26 05:05:58;;;;;;;6.87;4.53;;;;;;;7.96;84.12;95349.11;1796319;79;20989;-67
2022/04/26 05:08:25;;;;;;;6.07;3.93;;;;;;;8.12;84.26;95357.66;1793324;80;21010;-67
2022/04/26 05:10:52;;;;;;;5.47;3.47;;;;;;;8.32;83.99;95348.64;1787499;80;21505;-67
2022/04/26 05:13:19;;;;;;;10.17;4.33;;;;;;;8.45;83.54;95352.87;1787495;80;21064;-67
2022/04/26 05:15:47;;;;;;;4.47;3.67;;;;;;;8.61;83.02;95352.19;1787755;80;21006;-67
2022/04/26 05:18:14;;;;;;;3.50;3.20;;;;;;;8.74;82.96;95350.23;1787512;80;21006;-67
2022/04/26 05:20:41;;;;;;;4.73;3.20;;;;;;;8.91;82.84;95349.98;1787996;80;20982;-67
2022/04/26 05:25:54;;;;;;;4.57;3.63;;;;;;;9.26;82.00;95353.34;1783691;80;20942;-67
2022/04/26 05:28:20;;;;;;;4.93;4.37;;;;;;;9.47;81.55;95354.27;1787829;80;21468;-67
2022/04/26 05:30:47;;;;;;;6.60;4.80;;;;;;;9.71;81.64;95358.67;1787749;80;21014;-67
2022/04/26 05:33:13;;;;;;;5.67;4.33;;;;;;;9.99;81.47;95360.78;1787366;80;21060;-67
2022/04/26 05:35:40;;;;;;;8.27;4.40;;;;;;;10.23;80.26;95362.02;1788138;80;21006;-67
2022/04/26 05:38:07;;;;;;;6.20;4.10;;;;;;;10.50;79.98;95351.37;1787728;80;20974;-67
2022/04/26 05:40:34;;;;;;;8.08;4.60;;;;;;;10.78;78.24;95356.42;1787897;80;20958;-67
2022/04/26 05:43:01;;;;;;;5.03;3.72;;;;;;;10.97;76.47;95354.23;1787363;80;21021;-67
2022/04/26 05:45:27;;;;;;;5.05;3.65;;;;;;;11.12;75.19;95356.97;1787897;80;21040;-67
2022/04/26 05:47:54;;;;;;;6.22;3.60;;;;;;;11.24;74.52;95354.02;1787738;80;20998;-67
2022/04/26 05:50:21;;;;;;;3.87;2.72;;;;;;;11.32;73.36;95353.83;1787691;80;21020;-67
2022/04/26 05:52:48;;;;;;;4.53;3.60;;;;;;;11.54;74.02;95355.90;1787412;80;21009;-67
2022/04/26 05:55:14;;;;;;;6.28;4.00;;;;;;;11.78;72.36;95351.75;1788051;80;20982;-67
2022/04/26 05:57:42;;;;;;;4.20;3.33;;;;;;;11.86;71.39;95353.72;1787352;80;21064;-67
2022/04/26 06:00:12;;;;;;;3.58;2.80;;;;;;;12.01;70.58;95357.76;1787751;80;20993;-67
2022/04/26 06:02:40;;;;;;;2.55;2.35;;;;;;;12.18;70.66;95365.22;1787766;80;20977;-67
2022/04/26 06:05:09;;;;;;;4.10;2.42;;;;;;;12.29;70.00;95363.12;1787667;80;21490;-67
2022/04/26 06:07:36;;;;;;;3.12;2.20;;;;;;;12.38;68.33;95367.30;1788208;80;21459;-66
2022/04/26 06:10:04;;;;;;;2.47;1.95;;;;;;;12.60;68.09;95358.24;1778737;80;21010;-67
2022/04/26 06:12:31;;;;;;;2.72;1.75;;;;;;;12.75;66.94;95364.39;1777681;81;21022;-67
2022/04/26 06:14:59;;;;;;;2.65;1.95;;;;;;;12.77;66.88;95366.11;1777881;81;21066;-66
2022/04/26 06:17:27;;;;;;;3.62;2.22;;;;;;;12.78;66.08;95366.50;1777912;81;21512;-67
2022/04/26 06:19:53;;;;;;;3.27;1.92;;;;;;;12.83;66.95;95368.16;1777513;81;21042;-67
2022/04/26 06:22:21;;;;;;;2.62;1.85;;;;;;;12.74;65.70;95375.44;1777989;80;20986;-67
2022/04/26 06:24:49;;;;;;;2.90;2.27;;;;;;;12.65;65.36;95381.47;1777787;81;21112;-67
2022/04/26 06:27:16;;;;;;;3.47;2.40;;;;;;;12.65;66.14;95374.84;1778022;80;21001;-66
2022/04/26 06:29:43;;;;;;;2.75;2.30;;;;;;;12.74;66.40;95371.94;1777801;81;21033;-67
2022/04/26 06:32:09;;;;;;;3.17;2.10;;;;;;;12.94;65.62;95368.20;1777698;80;21045;-67
2022/04/26 06:34:36;;;;;;;3.47;2.45;;;;;;;13.16;65.32;95372.84;1777738;81;20990;-67
2022/04/26 06:37:03;;;;;;;2.62;2.10;;;;;;;13.35;64.09;95375.31;1778065;80;20974;-67
2022/04/26 06:39:29;;;;;;;2.33;2.00;;;;;;;13.56;63.96;95375.54;1777676;81;21040;-67
2022/04/26 06:41:56;;;;;;;3.00;2.08;;;;;;;13.75;62.99;95381.92;1777851;80;20979;-67
2022/04/26 06:44:25;;;;;;;2.45;1.80;;;;;;;13.94;61.63;95379.98;1777838;80;21017;-67
2022/04/26 06:46:52;;;;;;;3.33;2.15;;;;;;;14.10;62.73;95377.64;1777639;81;21037;-67
2022/04/26 06:49:18;;;;;;;2.67;2.12;;;;;;;13.87;60.73;95385.95;1777485;81;21013;-67
2022/04/26 06:51:45;;;;;;;3.50;2.08;;;;;;;13.64;60.34;95386.27;1777643;81;20971;-67
2022/04/26 06:54:12;;;;;;;8.78;2.47;;;;;;;13.37;61.84;95380.57;1777773;81;21534;-66
2022/04/26 06:56:45;;;;;;;2.60;1.90;;;;;;;13.21;62.63;95381.04;1777955;81;21001;-67
2022/04/26 06:59:10;;;;;;;4.28;2.35;;;;;;;13.31;63.59;95384.76;1777300;81;21046;-67
2022/04/26 07:01:37;;;;;;;2.60;1.95;;;;;;;13.45;63.66;95383.83;1777797;80;20974;-67
2022/04/26 07:04:05;;;;;;;2.87;2.33;;;;;;;13.54;62.37;95384.86;1777424;80;21077;-66
2022/04/26 07:06:32;;;;;;;2.37;1.62;;;;;;;13.67;62.29;95388.42;1778055;81;20966;-67
2022/04/26 07:08:59;;;;;;;6.05;5.33;;;;;;;13.73;61.13;95394.83;1780632;80;21507;-67
2022/04/26 07:11:26;;;;;;;4.08;1.82;;;;;;;13.82;60.40;95390.08;1787745;80;21479;-67
2022/04/26 07:13:53;;;;;;;2.15;1.85;;;;;;;13.95;60.89;95393.17;1787770;80;21033;-67
2022/04/26 07:16:19;;;;;;;1.92;1.70;;;;;;;13.79;58.97;95394.64;1787763;80;21009;-67
2022/04/26 07:18:46;;;;;;;2.40;1.57;;;;;;;13.91;59.24;95399.95;1787655;80;20958;-66
2022/04/26 07:21:13;;;;;;;2.87;1.70;;;;;;;14.05;59.39;95406.98;1787645;80;21001;-66
2022/04/26 07:23:39;;;;;;;1.70;1.60;;;;;;;14.04;59.55;95398.16;1788062;80;21005;-67
2022/04/26 07:26:06;;;;;;;2.75;1.45;;;;;;;13.94;59.74;95404.71;1787904;80;20977;-67
2022/04/26 07:28:33;;;;;;;2.35;1.47;;;;;;;13.78;59.62;95411.02;1787426;80;20982;-66
2022/04/26 07:31:00;;;;;;;3.15;1.40;;;;;;;13.79;59.59;95411.88;1787766;80;21480;-67
2022/04/26 07:36:11;;;;;;;1.87;1.50;;;;;;;14.34;60.04;95404.63;1787657;80;21515;-66
2022/04/26 07:38:38;;;;;;;4.47;1.77;;;;;;;14.59;55.40;95405.95;1787367;80;21009;-67
2022/04/26 07:41:07;;;;;;;2.67;1.57;;;;;;;14.63;58.90;95415.52;1787894;80;20946;-67
2022/04/26 07:43:33;;;;;;;2.40;1.60;;;;;;;14.69;59.19;95420.62;1787508;80;21017;-67
2022/04/26 07:46:00;;;;;;;1.52;1.30;;;;;;;14.68;58.84;95400.28;1787988;80;20981;-67
2022/04/26 07:48:27;;;;;;;2.00;1.35;;;;;;;14.75;56.75;95410.69;1787741;80;20986;-67
2022/04/26 07:50:54;;;;;;;1.90;1.72;;;;;;;14.84;57.35;95411.64;1787539;80;20997;-67
2022/04/26 07:53:20;;;;;;;2.87;1.57;;;;;;;14.82;56.48;95415.70;1787342;80;21013;-67
2022/04/26 07:55:47;;;;;;;1.70;1.60;;;;;;;14.82;56.48;95415.70;1788007;80;20930;-67
2022/04/26 07:58:14;;;;;;;1.65;1.55;;;;;;;15.04;56.57;95428.15;1787346;80;21015;-67
2022/04/26 08:00:40;;;;;;;2.37;1.52;;;;;;;15.04;56.57;95428.15;1787694;80;20982;-67
2022/04/26 08:03:07;;;;;;;1.50;1.40;;;;;;;15.03;56.20;95426.43;1787491;80;21002;-67
2022/04/26 08:05:34;;;;;;;1.52;1.42;;;;;;;15.26;57.75;95433.50;1787594;80;21483;-67
2022/04/26 08:08:00;;;;;;;1.85;1.40;;;;;;;15.49;55.08;95423.27;1787562;80;20978;-67
2022/04/26 08:10:27;;;;;;;2.12;1.80;;;;;;;15.73;55.43;95432.09;1794717;80;21016;-67
2022/04/26 08:12:54;;;;;;;3.00;1.90;;;;;;;15.65;54.89;95428.82;1795963;80;21503;-67
2022/04/26 08:15:21;;;;;;;2.47;1.82;;;;;;;15.44;54.91;95439.88;1796082;80;21009;-67
2022/04/26 08:17:49;;;;;;;2.58;1.90;;;;;;;15.49;54.56;95441.41;1795903;79;21004;-67
2022/04/26 08:20:16;;;;;;;2.05;1.90;;;;;;;15.61;55.45;95439.20;1796333;80;20989;-67
2022/04/26 08:22:44;;;;;;;1.52;1.32;;;;;;;15.68;55.97;95438.89;1796073;79;21514;-67
2022/04/26 08:27:55;;;;;;;1.50;1.30;;;;;;;15.70;52.15;95444.16;1796363;79;21033;-66
2022/04/26 08:30:22;;;;;;;1.45;1.30;;;;;;;15.29;51.90;95442.20;1796074;79;21045;-67
2022/04/26 08:32:50;;;;;;;1.57;1.40;;;;;;;15.29;51.90;95442.20;1796186;79;20965;-67
2022/04/26 08:35:21;;;;;;;3.30;1.57;;;;;;;15.23;53.73;95450.44;1796176;80;20985;-67
2022/04/26 08:37:48;;;;;;;1.55;1.40;;;;;;;15.51;54.33;95441.36;1796309;79;20969;-67
2022/04/26 08:40:16;;;;;;;1.90;1.40;;;;;;;15.74;51.08;95441.78;1796395;80;21005;-67
2022/04/26 08:42:47;;;;;;;2.33;1.40;;;;;;;16.01;50.90;95445.95;1796250;79;21036;-67
2022/04/26 08:45:16;;;;;;;2.45;1.17;;;;;;;16.15;52.68;95441.83;1796226;80;21013;-67
2022/04/26 08:53:20;;;;;;;2.15;1.20;;;;;;;16.60;50.77;95448.75;1796150;79;21001;-67
2022/04/26 08:55:52;;;;;;;3.70;1.20;;;;;;;16.55;50.16;95453.41;1796240;80;20978;-67
2022/04/26 08:58:19;;;;;;;1.72;1.00;;;;;;;16.59;49.00;95446.55;1796369;80;20989;-67
2022/04/26 09:01:08;;;;;;;1.50;1.10;;;;;;;16.73;48.16;95439.30;1796231;80;21036;-66
2022/04/26 09:03:55;;;;;;;1.25;1.15;;;;;;;16.70;45.42;95440.73;1795610;80;21459;-67
2022/04/26 09:06:36;;;;;;;1.47;1.37;;;;;;;16.83;45.73;95446.41;1795386;80;21754;-67
2022/04/26 09:09:21;;;;;;;1.15;1.05;;;;;;;16.94;45.28;95436.61;1793685;80;21103;-66
2022/04/26 09:11:49;;;;;;;1.57;1.27;;;;;;;17.04;43.21;95444.58;1778004;80;20990;-67
2022/04/26 09:14:33;;;;;;;2.45;1.20;;;;;;;16.92;47.14;95446.00;1777549;81;21013;-66
2022/04/26 09:17:12;;;;;;;2.30;1.20;;;;;;;16.78;44.60;95454.64;1777792;80;21507;-67
2022/04/26 09:19:54;;;;;;;1.12;0.90;;;;;;;16.72;45.99;95451.34;1777784;80;21040;-66
2022/04/26 09:22:25;;;;;;;1.77;1.20;;;;;;;16.98;44.78;95447.03;1777694;80;21527;-67
2022/04/26 09:25:04;;;;;;;1.50;1.40;;;;;;;16.92;44.00;95475.31;1777789;80;20993;-67
2022/04/26 09:27:37;;;;;;;1.40;1.30;;;;;;;16.53;43.85;95461.49;1777499;81;21002;-67
2022/04/26 09:30:12;;;;;;;1.57;1.15;;;;;;;16.72;44.57;95453.53;1777686;80;20979;-67
2022/04/26 09:32:48;;;;;;;2.98;1.50;;;;;;;16.70;43.43;95460.72;1777765;81;20998;-66
2022/04/26 09:35:23;;;;;;;1.20;1.10;;;;;;;16.61;45.03;95463.34;1777566;81;21069;-66
2022/04/26 09:37:50;;;;;;;1.40;1.10;;;;;;;16.53;43.93;95463.27;1777784;81;21456;-67
2022/04/26 09:40:20;;;;;;;1.37;1.27;;;;;;;16.61;45.51;95459.34;1777391;81;21512;-67
2022/04/26 09:42:50;;;;;;;1.52;1.15;;;;;;;16.71;46.43;95457.14;1777620;81;20974;-67
2022/04/26 09:45:17;;;;;;;2.92;1.10;;;;;;;16.49;42.54;95459.03;1777708;81;21030;-67
2022/04/26 09:47:45;;;;;;;1.10;0.98;;;;;;;16.31;44.07;95465.55;1777800;80;20995;-67
2022/04/26 09:50:15;;;;;;;1.20;1.10;;;;;;;16.26;45.35;95462.22;1777366;80;21006;-66
2022/04/26 09:52:43;;;;;;;2.05;1.27;;;;;;;16.36;46.85;95466.22;1777390;80;20975;-67
2022/04/26 09:55:13;;;;;;;2.25;1.40;;;;;;;16.43;46.40;95457.50;1777646;81;21010;-67
2022/04/26 09:57:41;;;;;;;3.92;1.47;;;;;;;16.40;47.65;95458.50;1777728;80;21006;-67
2022/04/26 10:00:12;;;;;;;1.17;1.07;;;;;;;16.39;48.08;95458.56;1777800;81;21488;-67
2022/04/26 10:02:45;;;;;;;2.05;1.47;;;;;;;16.58;47.37;95452.83;1777749;80;21002;-66
2022/04/26 10:20:40;;;;;;;3.98;2.55;;;;;;;18.02;43.53;95443.02;1860184;77;23164;-67
2022/04/26 10:23:07;;;;;;;2.95;2.27;;;;;;;17.66;43.73;95448.70;1832339;78;21014;-67
2022/04/26 10:25:34;;;;;;;2.72;1.75;;;;;;;17.27;43.87;95440.83;1827240;78;21011;-67
2022/04/26 10:28:21;;;;;;;2.12;1.80;;;;;;;17.05;43.86;95441.83;1832174;78;21019;-67
2022/04/26 10:30:50;;;;;;;5.00;1.98;;;;;;;16.86;45.28;95448.95;1832374;78;21031;-67
2022/04/26 10:33:40;;;;;;;2.90;1.75;;;;;;;16.87;45.68;95450.67;1831640;78;21000;-67
2022/04/26 10:36:33;;;;;;;2.65;1.27;;;;;;;17.14;45.77;95443.22;1832350;78;21036;-67
2022/04/26 10:39:14;;;;;;;1.93;1.70;;;;;;;17.06;43.51;95445.38;1832735;78;21022;-66
2022/04/26 10:41:44;;;;;;;1.90;1.20;;;;;;;17.61;45.58;95446.73;1832268;78;21015;-67
2022/04/26 10:44:21;;;;;;;2.25;1.47;;;;;;;18.21;43.58;95446.47;1832142;78;21014;-67
2022/04/26 10:46:58;;;;;;;1.70;1.60;;;;;;;18.27;42.84;95442.16;1832050;78;21019;-67
2022/04/26 10:49:40;;;;;;;2.27;1.65;;;;;;;17.85;42.35;95448.72;1823052;78;21012;-67
2022/04/26 10:52:19;;;;;;;2.22;1.20;;;;;;;17.51;42.30;95456.12;1832644;78;21016;-67
2022/04/26 10:55:03;;;;;;;2.05;1.80;;;;;;;17.19;41.35;95447.86;1832132;78;21067;-67
2022/04/26 10:57:40;;;;;;;2.10;1.50;;;;;;;17.55;46.88;95449.70;1832166;78;20992;-67
2022/04/26 11:00:15;;;;;;;2.12;1.30;;;;;;;18.03;43.45;95452.27;1832446;78;21561;-67
2022/04/26 11:02:48;;;;;;;1.55;1.30;;;;;;;18.23;40.88;95435.23;1832418;78;21007;-67
2022/04/26 11:05:27;;;;;;;1.65;1.30;;;;;;;18.22;39.61;95444.65;1795374;80;21058;-67
2022/04/26 11:07:55;;;;;;;2.98;1.62;;;;;;;18.31;39.60;95450.87;1795502;80;21447;-67
2022/04/26 11:10:25;;;;;;;2.12;1.72;;;;;;;18.37;40.53;95440.74;1795932;80;21006;-67
2022/04/26 11:12:52;;;;;;;1.22;1.12;;;;;;;18.49;42.34;95444.56;1795791;80;21006;-67
2022/04/26 11:15:22;;;;;;;2.30;1.30;;;;;;;18.78;43.20;95440.88;1795683;80;21558;-67
2022/04/26 11:17:51;;;;;;;3.20;1.60;;;;;;;19.03;40.93;95427.91;1795780;80;21018;-67
2022/04/26 11:20:24;;;;;;;1.37;1.27;;;;;;;19.36;40.41;95431.50;1795783;80;21094;-67
2022/04/26 11:22:55;;;;;;;1.35;1.25;;;;;;;19.56;37.67;95431.72;1795589;80;20963;-67
2022/04/26 11:28:13;;;;;;;2.27;1.40;;;;;;;19.74;41.29;95428.02;1795410;80;21022;-67
2022/04/26 11:30:46;;;;;;;2.10;1.60;;;;;;;19.89;41.59;95430.29;1795568;80;20990;-67
2022/04/26 11:33:18;;;;;;;1.57;1.47;;;;;;;20.15;37.02;95419.86;1795557;80;21011;-67
2022/04/26 11:35:57;;;;;;;4.83;4.40;;;;;;;20.21;36.59;95432.43;1795478;80;21003;-67
2022/04/26 11:38:25;;;;;;;1.40;1.30;;;;;;;20.51;34.99;95435.55;1795297;80;21547;-67
2022/04/26 11:41:00;;;;;;;2.08;1.40;;;;;;;20.72;34.08;95429.41;1795630;80;20982;-67
2022/04/26 11:43:33;;;;;;;1.20;1.20;;;;;;;21.26;34.27;95430.08;1795072;80;21042;-67
2022/04/26 11:46:00;;;;;;;;;;;;;;;21.55;32.33;95432.29;1798203;80;21017;-67
2022/04/26 11:48:33;;;;;;;1.65;0.90;;;;;;;21.73;31.90;95433.77;1763943;81;20458;-67
2022/04/26 11:51:01;;;;;;;1.45;1.30;;;;;;;21.14;29.07;95431.25;1795468;80;21472;-67
2022/04/26 11:53:34;;;;;;;1.40;1.30;;;;;;;21.71;29.78;95425.44;1795582;80;21484;-67
2022/04/26 11:56:03;;;;;;;;;;;;;;;21.83;28.41;95446.13;1798133;80;20991;-67
2022/04/26 11:58:39;;;;;;;1.05;1.00;;;;;;;21.81;29.29;95442.18;1795180;80;20104;-67
2022/04/26 12:01:15;;;;;;;3.00;1.30;;;;;;;21.64;29.22;95430.33;1795759;80;20994;-67
2022/04/26 12:03:49;;;;;;;3.22;1.50;;;;;;;21.95;27.94;95430.55;1795656;80;21054;-67
2022/04/26 12:06:39;;;;;;;1.10;1.10;;;;;;;22.25;28.66;95430.36;1795812;80;21010;-67
2022/04/26 12:09:09;;;;;;;2.98;1.25;;;;;;;22.06;26.88;95430.31;1795591;80;21027;-67
2022/04/26 12:11:38;;;;;;;2.35;1.30;;;;;;;22.41;28.46;95430.66;1795403;80;20983;-67
2022/04/26 12:14:12;;;;;;;0.98;0.98;;;;;;;22.56;28.31;95426.06;1795128;80;21066;-67
2022/04/26 12:16:54;;;;;;;1.80;1.42;;;;;;;22.52;26.00;95420.02;1795487;80;21508;-67
2022/04/26 12:19:38;;;;;;;6.12;3.62;;;;;;;23.03;27.04;95420.55;1795600;80;21050;-67
2022/04/26 12:22:06;;;;;;;1.72;1.00;;;;;;;23.29;26.49;95410.16;1795442;80;21519;-67
2022/04/26 12:24:36;;;;;;;1.87;1.50;;;;;;;23.38;24.56;95427.95;1795463;80;20971;-67
2022/04/26 12:27:07;;;;;;;1.80;1.70;;;;;;;23.54;26.17;95411.08;1795195;80;20983;-67
2022/04/26 12:29:44;;;;;;;1.30;1.20;;;;;;;24.06;30.23;95397.80;1795460;80;21091;-68
2022/04/26 12:32:17;;;;;;;1.02;1.00;;;;;;;24.05;25.60;95414.11;1795424;80;20975;-67
2022/04/26 12:35:00;;;;;;;1.32;1.22;;;;;;;24.44;25.94;95407.51;1795461;80;20991;-67
2022/04/26 12:37:29;;;;;;;1.25;1.15;;;;;;;24.73;26.49;95405.30;1795634;80;21074;-68
2022/04/26 12:40:10;;;;;;;3.08;1.02;;;;;;;24.90;25.95;95401.80;1795488;80;20979;-68
2022/04/26 12:42:39;;;;;;;2.27;1.10;;;;;;;24.89;24.13;95404.95;1793455;80;21122;-67
2022/04/26 12:45:23;;;;;;;1.75;1.12;;;;;;;25.09;23.28;95395.78;1795792;80;21479;-68
2022/04/26 12:51:18;;;;;;;1.60;1.20;;;;;;;25.76;25.70;95399.83;1795550;80;21003;-68
2022/04/26 12:53:46;;;;;;;1.00;1.00;;;;;;;25.89;22.18;95406.47;1795191;80;21523;-68
2022/04/26 12:56:13;;;;;;;2.75;1.02;;;;;;;25.80;23.68;95399.92;1795445;80;21515;-67
2022/04/26 12:58:43;;;;;;;3.27;1.20;;;;;;;25.95;22.32;95389.73;1795299;80;21019;-67
2022/04/26 13:01:11;;;;;;;1.35;1.25;;;;;;;26.52;24.57;95389.02;1795455;80;21023;-67
2022/04/26 13:03:40;;;;;;;2.00;1.10;;;;;;;27.17;22.25;95388.41;1795511;80;21464;-68
2022/04/26 13:06:18;;;;;;;1.10;1.00;;;;;;;26.81;22.80;95382.98;1795613;80;20967;-68
2022/04/26 13:08:51;;;;;;;1.25;1.15;;;;;;;26.43;20.12;95390.65;1795635;80;21061;-68
2022/04/26 13:11:21;;;;;;;;;;;;;;;26.07;21.46;95386.51;1798141;80;21528;-68
2022/04/26 13:13:48;;;;;;;1.50;1.40;;;;;;;25.88;22.58;95390.75;1762932;81;20410;-67
2022/04/26 13:16:16;;;;;;;1.30;1.20;;;;;;;26.10;22.72;95378.98;1795420;80;21078;-68
2022/04/26 13:18:45;;;;;;;1.02;1.02;;;;;;;26.76;23.45;95383.37;1795532;80;20975;-68
2022/04/26 13:21:13;;;;;;;2.17;1.62;;;;;;;26.80;21.40;95364.53;1795228;80;20979;-68
2022/04/26 13:23:41;;;;;;;1.25;0.98;;;;;;;26.95;23.96;95372.67;1795296;80;21006;-67
2022/04/26 13:26:07;;;;;;;2.02;1.47;;;;;;;26.66;20.75;95386.03;1795609;80;21472;-67
2022/04/26 13:28:34;;;;;;;2.08;1.20;;;;;;;26.39;21.12;95378.89;1795499;80;21096;-67
2022/04/26 13:42:48;;;;;;;1.32;1.22;;;;;;;28.01;19.47;95379.52;1860204;77;22195;-67
2022/04/26 13:45:14;;;;;;;2.40;1.15;;;;;;;27.47;20.42;95374.02;1832653;78;21010;-67
2022/04/26 13:47:41;;;;;;;1.32;1.22;;;;;;;27.58;19.24;95375.76;1832449;78;20996;-68
2022/04/26 13:50:09;;;;;;;1.50;1.35;;;;;;;27.71;19.24;95374.16;1832211;78;20960;-68
2022/04/26 13:52:37;;;;;;;1.10;1.05;;;;;;;27.02;19.99;95382.48;1832411;78;21461;-68
2022/04/26 13:55:05;;;;;;;1.30;1.20;;;;;;;26.99;19.95;95380.05;1794950;78;21030;-68
2022/04/26 13:57:32;;;;;;;1.82;1.20;;;;;;;27.12;21.19;95382.03;1832417;78;21489;-67
2022/04/26 14:00:00;;;;;;;1.32;1.17;;;;;;;26.97;20.36;95380.16;1832418;78;21004;-68
2022/04/26 14:02:29;;;;;;;1.72;1.62;;;;;;;27.13;21.24;95373.41;1832352;78;21030;-68
2022/04/26 14:04:55;;;;;;;1.60;1.20;;;;;;;27.38;20.96;95363.48;1832290;78;21540;-67
2022/04/26 14:07:22;;;;;;;1.30;1.20;;;;;;;26.91;21.36;95367.17;1832445;78;21461;-68
2022/04/26 14:09:48;;;;;;;1.60;1.30;;;;;;;27.16;21.51;95370.42;1832516;78;21055;-68
2022/04/26 14:12:18;;;;;;;1.42;1.30;;;;;;;26.45;20.93;95377.86;1832644;78;21036;-68
2022/04/26 14:22:59;;;;;;;2.25;1.80;;;;;;;26.36;20.37;95374.60;1832327;78;21492;-67
2022/04/26 14:25:26;;;;;;;1.32;1.22;;;;;;;26.89;20.88;95377.27;1832394;78;20988;-67
2022/04/26 14:27:52;;;;;;;1.85;1.40;;;;;;;27.13;20.62;95372.90;1832378;78;20976;-68
2022/04/26 14:30:19;;;;;;;1.60;1.40;;;;;;;27.09;21.52;95370.12;1832457;78;21038;-68
2022/04/26 14:32:46;;;;;;;1.47;1.37;;;;;;;27.36;21.71;95376.31;1832544;78;21029;-68
2022/04/26 14:35:13;;;;;;;2.85;1.90;;;;;;;27.72;20.54;95371.79;1832159;78;21019;-68
2022/04/26 14:37:40;;;;;;;2.45;1.27;;;;;;;27.53;21.03;95373.45;1832519;78;21030;-68
2022/04/26 14:40:13;;;;;;;1.85;1.15;;;;;;;27.30;20.37;95367.39;1832303;78;20944;-68
2022/04/26 14:42:38;;;;;;;1.27;1.17;;;;;;;27.08;22.08;95377.02;1833411;78;21051;-68
2022/04/26 14:45:06;;;;;;;2.75;1.57;;;;;;;27.03;21.34;95375.20;1835565;78;21007;-68
2022/04/26 14:47:33;;;;;;;3.90;3.60;;;;;;;27.08;20.60;95372.45;1835062;78;20972;-68
2022/04/26 14:50:02;;;;;;;3.02;2.17;;;;;;;27.44;20.66;95372.91;1835169;78;21102;-68
2022/04/26 14:52:30;;;;;;;2.80;2.60;;;;;;;27.36;20.62;95376.31;1835426;78;21115;-68
2022/04/26 14:55:01;;;;;;;2.30;1.50;;;;;;;27.23;21.10;95382.46;1835367;78;20987;-67
2022/04/26 14:57:27;;;;;;;1.27;1.20;;;;;;;27.49;21.59;95376.07;1835330;78;21003;-68
2022/04/26 14:59:54;;;;;;;2.05;1.80;;;;;;;27.48;20.84;95373.52;1835232;78;21465;-68
2022/04/26 15:02:21;;;;;;;3.67;2.83;;;;;;;27.67;20.62;95374.94;1746246;82;21012;-68
2022/04/26 15:04:48;;;;;;;4.45;4.15;;;;;;;28.02;20.92;95373.12;1767741;81;21584;-67
2022/04/26 15:07:15;;;;;;;4.28;3.87;;;;;;;27.75;20.82;95377.81;1768066;81;21006;-68
2022/04/26 15:09:52;;;;;;;2.65;2.12;;;;;;;28.10;20.27;95378.31;1795517;80;21084;-68
2022/04/26 15:17:50;;;;;;;7.67;6.97;;;;;;;28.05;19.79;95370.62;1795706;80;21002;-68
2022/04/26 15:20:21;;;;;;;2.30;1.77;;;;;;;28.03;20.67;95373.47;1795812;80;20959;-68
2022/04/26 15:22:48;;;;;;;1.52;1.42;;;;;;;28.04;20.69;95374.31;1795922;80;21439;-67
2022/04/26 15:25:15;;;;;;;1.40;1.25;;;;;;;27.31;20.82;95371.80;1795947;80;21006;-67
2022/04/26 15:27:42;;;;;;;3.20;2.05;;;;;;;27.27;21.10;95377.14;1795789;80;21022;-67
2022/04/26 15:30:12;;;;;;;2.40;2.17;;;;;;;26.84;21.83;95374.58;1795982;80;21014;-67
2022/04/26 15:32:39;;;;;;;2.27;1.70;;;;;;;26.26;22.58;95373.67;1795825;80;21432;-67
2022/04/26 15:35:09;;;;;;;2.25;2.05;;;;;;;25.68;23.28;95380.70;1795937;80;20995;-67
2022/04/26 15:37:35;;;;;;;2.17;1.98;;;;;;;24.10;24.39;95381.78;1795786;80;20990;-67
2022/04/26 15:40:03;;;;;;;2.40;1.65;;;;;;;23.15;25.73;95386.05;1795761;80;21011;-67
2022/04/26 15:42:34;;;;;;;2.00;1.85;;;;;;;21.91;27.92;95393.23;1789954;80;21492;-67
2022/04/26 15:45:01;;;;;;;1.80;1.70;;;;;;;21.47;27.89;95399.69;1787236;80;21014;-67
2022/04/26 15:47:29;;;;;;;2.10;1.90;;;;;;;20.43;29.91;95399.83;1787077;80;21019;-67
2022/04/26 15:49:56;;;;;;;2.12;1.92;;;;;;;19.92;30.80;95401.98;1787116;80;20971;-67
2022/04/26 15:52:23;;;;;;;2.85;2.35;;;;;;;19.72;31.38;95402.28;1787195;80;21009;-67
2022/04/26 15:54:50;;;;;;;4.25;1.85;;;;;;;19.39;32.71;95401.41;1787260;80;20991;-67
2022/04/26 15:57:17;;;;;;;3.02;2.72;;;;;;;19.03;33.65;95402.99;1787289;80;21007;-67
2022/04/26 15:59:43;;;;;;;2.58;2.37;;;;;;;18.92;33.47;95402.70;1787014;80;21457;-67
2022/04/26 16:02:10;;;;;;;2.95;2.75;;;;;;;18.55;35.05;95403.33;1787288;80;20991;-67
2022/04/26 16:04:37;;;;;;;2.90;2.60;;;;;;;18.36;35.69;95408.28;1787190;80;21003;-67
2022/04/26 16:07:04;;;;;;;4.42;3.05;;;;;;;18.23;35.75;95407.67;1787135;80;21445;-67
2022/04/26 16:20:34;;;;;;;4.12;2.95;;;;;;;17.33;39.82;95415.67;1786876;80;21445;-67
2022/04/26 16:23:05;;;;;;;4.42;3.40;;;;;;;17.21;39.77;95419.77;1787110;80;21090;-67
2022/04/26 16:25:32;;;;;;;3.30;2.70;;;;;;;17.05;40.34;95423.16;1787181;80;21023;-67
2022/04/26 16:28:04;;;;;;;2.65;2.40;;;;;;;16.88;40.73;95421.75;1787108;80;21015;-67
2022/04/26 16:30:32;;;;;;;3.02;2.72;;;;;;;16.76;40.83;95420.50;1786050;80;21054;-67
2022/04/26 16:33:01;;;;;;;3.50;2.60;;;;;;;16.64;40.48;95420.58;1787068;80;21051;-67